sensor_id;sensor_type;location;lat;lon;timestamp;pressure;altitude;pressure_sealevel;temperature;humidity
75538;BME280;64121;48.666;8.114;2023-04-25T00:01:31;99492.59;;;9.14;80.29
75538;BME280;64121;48.666;8.114;2023-04-25T00:03:57;99487.25;;;9.09;79.69
75538;BME280;64121;48.666;8.114;2023-04-25T00:06:22;99491.19;;;9.08;79.70
75538;BME280;64121;48.666;8.114;2023-04-25T00:08:47;99489.22;;;9.08;79.22
75538;BME280;64121;48.666;8.114;2023-04-25T00:11:13;99486.00;;;9.06;79.75
75538;BME280;64121;48.666;8.114;2023-04-25T00:13:38;99493.41;;;9.02;79.20
75538;BME280;64121;48.666;8.114;2023-04-25T00:16:04;99489.03;;;9.01;78.70
75538;BME280;64121;48.666;8.114;2023-04-25T00:18:31;99487.06;;;9.02;79.22
75538;BME280;64121;48.666;8.114;2023-04-25T00:20:56;99483.47;;;9.01;79.46
75538;BME280;64121;48.666;8.114;2023-04-25T00:23:21;99487.31;;;8.97;79.28
75538;BME280;64121;48.666;8.114;2023-04-25T00:25:49;99485.69;;;8.96;79.23
75538;BME280;64121;48.666;8.114;2023-04-25T00:28:14;99482.69;;;8.89;80.23
75538;BME280;64121;48.666;8.114;2023-04-25T00:30:40;99479.72;;;8.82;81.16
75538;BME280;64121;48.666;8.114;2023-04-25T00:33:06;99477.28;;;8.80;81.29
75538;BME280;64121;48.666;8.114;2023-04-25T00:35:33;99471.50;;;8.73;81.35
75538;BME280;64121;48.666;8.114;2023-04-25T00:37:58;99478.56;;;8.70;80.85
75538;BME280;64121;48.666;8.114;2023-04-25T00:40:23;99482.50;;;8.69;80.55
75538;BME280;64121;48.666;8.114;2023-04-25T00:42:50;99480.31;;;8.75;80.46
75538;BME280;64121;48.666;8.114;2023-04-25T00:45:17;99478.69;;;8.74;81.10
75538;BME280;64121;48.666;8.114;2023-04-25T00:47:43;99477.44;;;8.59;81.73
75538;BME280;64121;48.666;8.114;2023-04-25T00:50:09;99480.56;;;8.58;82.42
75538;BME280;64121;48.666;8.114;2023-04-25T00:52:36;99488.16;;;8.61;82.54
75538;BME280;64121;48.666;8.114;2023-04-25T00:55:02;99485.97;;;8.54;81.71
75538;BME280;64121;48.666;8.114;2023-04-25T00:57:28;99475.22;;;8.53;81.74
75538;BME280;64121;48.666;8.114;2023-04-25T00:59:54;99475.13;;;8.61;80.80
75538;BME280;64121;48.666;8.114;2023-04-25T01:02:19;99478.69;;;8.62;79.92
75538;BME280;64121;48.666;8.114;2023-04-25T01:04:45;99489.09;;;8.65;78.67
75538;BME280;64121;48.666;8.114;2023-04-25T01:07:10;99475.31;;;8.68;78.09
75538;BME280;64121;48.666;8.114;2023-04-25T01:09:37;99483.09;;;8.75;77.59
75538;BME280;64121;48.666;8.114;2023-04-25T01:12:03;99474.53;;;8.68;77.41
75538;BME280;64121;48.666;8.114;2023-04-25T01:14:28;99472.78;;;8.63;77.99
75538;BME280;64121;48.666;8.114;2023-04-25T01:16:54;99478.25;;;8.60;77.99
75538;BME280;64121;48.666;8.114;2023-04-25T01:19:19;99479.03;;;8.60;77.88
75538;BME280;64121;48.666;8.114;2023-04-25T01:21:46;99482.03;;;8.55;77.91
75538;BME280;64121;48.666;8.114;2023-04-25T01:24:12;99469.31;;;8.54;78.49
75538;BME280;64121;48.666;8.114;2023-04-25T01:26:37;99471.28;;;8.54;79.08
75538;BME280;64121;48.666;8.114;2023-04-25T01:29:03;99476.72;;;8.50;80.50
75538;BME280;64121;48.666;8.114;2023-04-25T01:31:29;99479.59;;;8.54;80.13
75538;BME280;64121;48.666;8.114;2023-04-25T01:33:55;99470.38;;;8.62;81.35
75538;BME280;64121;48.666;8.114;2023-04-25T01:36:21;99466.69;;;8.58;81.19
75538;BME280;64121;48.666;8.114;2023-04-25T01:38:48;99463.47;;;8.56;83.50
75538;BME280;64121;48.666;8.114;2023-04-25T01:41:14;99467.25;;;8.51;84.25
75538;BME280;64121;48.666;8.114;2023-04-25T01:43:40;99475.69;;;8.42;85.37
75538;BME280;64121;48.666;8.114;2023-04-25T01:46:05;99468.84;;;8.28;85.78
75538;BME280;64121;48.666;8.114;2023-04-25T01:48:31;99480.28;;;8.26;85.76
75538;BME280;64121;48.666;8.114;2023-04-25T01:50:56;99478.41;;;8.18;87.18
75538;BME280;64121;48.666;8.114;2023-04-25T01:53:21;99481.31;;;8.22;86.05
75538;BME280;64121;48.666;8.114;2023-04-25T01:55:48;99479.69;;;8.33;84.58
75538;BME280;64121;48.666;8.114;2023-04-25T01:58:14;99479.38;;;8.34;84.89
75538;BME280;64121;48.666;8.114;2023-04-25T02:00:39;99479.94;;;8.28;83.73
75538;BME280;64121;48.666;8.114;2023-04-25T02:03:04;99475.81;;;8.34;84.84
75538;BME280;64121;48.666;8.114;2023-04-25T02:05:34;99473.28;;;8.41;84.19
75538;BME280;64121;48.666;8.114;2023-04-25T02:07:59;99469.25;;;8.38;83.89
75538;BME280;64121;48.666;8.114;2023-04-25T02:10:24;99476.06;;;8.41;86.15
75538;BME280;64121;48.666;8.114;2023-04-25T02:12:51;99472.38;;;8.37;85.74
75538;BME280;64121;48.666;8.114;2023-04-25T02:15:16;99472.88;;;8.30;87.98
75538;BME280;64121;48.666;8.114;2023-04-25T02:17:42;99479.59;;;8.29;87.08
75538;BME280;64121;48.666;8.114;2023-04-25T02:20:08;99476.13;;;8.32;86.70
75538;BME280;64121;48.666;8.114;2023-04-25T02:22:33;99473.22;;;8.29;87.90
75538;BME280;64121;48.666;8.114;2023-04-25T02:24:59;99471.75;;;8.19;88.77
75538;BME280;64121;48.666;8.114;2023-04-25T02:27:24;99474.97;;;8.21;88.50
75538;BME280;64121;48.666;8.114;2023-04-25T02:29:51;99467.00;;;8.19;89.27
75538;BME280;64121;48.666;8.114;2023-04-25T02:32:16;99464.69;;;8.22;89.44
75538;BME280;64121;48.666;8.114;2023-04-25T02:34:41;99466.06;;;8.15;89.84
75538;BME280;64121;48.666;8.114;2023-04-25T02:37:07;99468.38;;;8.13;89.03
75538;BME280;64121;48.666;8.114;2023-04-25T02:39:32;99464.00;;;8.12;89.69
75538;BME280;64121;48.666;8.114;2023-04-25T02:41:57;99457.63;;;8.12;90.07
75538;BME280;64121;48.666;8.114;2023-04-25T02:44:23;99459.59;;;8.11;89.93
75538;BME280;64121;48.666;8.114;2023-04-25T02:46:49;99463.28;;;8.03;89.72
75538;BME280;64121;48.666;8.114;2023-04-25T02:49:15;99453.47;;;8.06;89.25
75538;BME280;64121;48.666;8.114;2023-04-25T02:51:40;99446.31;;;8.05;88.76
75538;BME280;64121;48.666;8.114;2023-04-25T02:54:05;99451.28;;;8.11;88.93
75538;BME280;64121;48.666;8.114;2023-04-25T02:56:30;99445.66;;;8.20;87.33
75538;BME280;64121;48.666;8.114;2023-04-25T02:58:56;99449.78;;;8.14;87.13
75538;BME280;64121;48.666;8.114;2023-04-25T03:01:21;99447.63;;;8.19;87.14
75538;BME280;64121;48.666;8.114;2023-04-25T03:03:48;99446.09;;;8.10;88.91
75538;BME280;64121;48.666;8.114;2023-04-25T03:06:13;99437.56;;;8.03;89.99
75538;BME280;64121;48.666;8.114;2023-04-25T03:08:39;99434.66;;;8.11;88.99
75538;BME280;64121;48.666;8.114;2023-04-25T03:11:04;99435.22;;;8.17;88.52
75538;BME280;64121;48.666;8.114;2023-04-25T03:13:29;99427.88;;;8.21;87.92
75538;BME280;64121;48.666;8.114;2023-04-25T03:15:55;99427.41;;;8.19;88.74
75538;BME280;64121;48.666;8.114;2023-04-25T03:18:20;99427.28;;;8.15;89.24
75538;BME280;64121;48.666;8.114;2023-04-25T03:20:47;99423.25;;;8.25;89.67
75538;BME280;64121;48.666;8.114;2023-04-25T03:23:12;99424.41;;;8.24;87.77
75538;BME280;64121;48.666;8.114;2023-04-25T03:25:37;99423.69;;;8.27;88.44
75538;BME280;64121;48.666;8.114;2023-04-25T03:28:03;99424.75;;;8.23;88.11
75538;BME280;64121;48.666;8.114;2023-04-25T03:30:28;99426.25;;;8.20;87.40
75538;BME280;64121;48.666;8.114;2023-04-25T03:32:53;99419.78;;;8.28;87.78
75538;BME280;64121;48.666;8.114;2023-04-25T03:35:19;99417.69;;;8.25;87.09
75538;BME280;64121;48.666;8.114;2023-04-25T03:37:45;99411.91;;;8.30;88.07
75538;BME280;64121;48.666;8.114;2023-04-25T03:40:11;99414.56;;;8.27;87.94
75538;BME280;64121;48.666;8.114;2023-04-25T03:42:36;99415.84;;;8.29;88.34
75538;BME280;64121;48.666;8.114;2023-04-25T03:45:02;99403.38;;;8.23;89.12
75538;BME280;64121;48.666;8.114;2023-04-25T03:47:27;99411.59;;;8.19;89.56
75538;BME280;64121;48.666;8.114;2023-04-25T03:49:52;99413.53;;;8.07;90.52
75538;BME280;64121;48.666;8.114;2023-04-25T03:52:18;99409.97;;;8.06;90.15
75538;BME280;64121;48.666;8.114;2023-04-25T03:54:45;99413.31;;;8.12;90.23
75538;BME280;64121;48.666;8.114;2023-04-25T03:57:10;99410.53;;;8.12;89.07
75538;BME280;64121;48.666;8.114;2023-04-25T03:59:35;99405.34;;;8.10;88.84
75538;BME280;64121;48.666;8.114;2023-04-25T04:02:01;99404.28;;;8.15;88.70
75538;BME280;64121;48.666;8.114;2023-04-25T04:04:26;99409.03;;;8.14;89.29
75538;BME280;64121;48.666;8.114;2023-04-25T04:06:51;99407.41;;;8.13;89.46
75538;BME280;64121;48.666;8.114;2023-04-25T04:09:17;99402.91;;;8.09;90.21
75538;BME280;64121;48.666;8.114;2023-04-25T04:11:43;99390.91;;;8.05;90.72
75538;BME280;64121;48.666;8.114;2023-04-25T04:14:09;99395.84;;;7.99;90.48
75538;BME280;64121;48.666;8.114;2023-04-25T04:16:34;99396.34;;;8.01;89.92
75538;BME280;64121;48.666;8.114;2023-04-25T04:18:59;99411.56;;;8.07;90.16
75538;BME280;64121;48.666;8.114;2023-04-25T04:21:25;99407.19;;;8.06;90.84
75538;BME280;64121;48.666;8.114;2023-04-25T04:23:50;99410.06;;;7.98;91.47
75538;BME280;64121;48.666;8.114;2023-04-25T04:26:15;99396.44;;;7.93;92.61
75538;BME280;64121;48.666;8.114;2023-04-25T04:28:43;99394.25;;;7.86;93.45
75538;BME280;64121;48.666;8.114;2023-04-25T04:31:08;99398.88;;;7.82;94.01
75538;BME280;64121;48.666;8.114;2023-04-25T04:33:33;99396.31;;;7.77;94.29
75538;BME280;64121;48.666;8.114;2023-04-25T04:35:59;99402.09;;;7.72;94.41
75538;BME280;64121;48.666;8.114;2023-04-25T04:38:24;99398.06;;;7.81;94.09
75538;BME280;64121;48.666;8.114;2023-04-25T04:40:49;99396.91;;;7.82;94.08
75538;BME280;64121;48.666;8.114;2023-04-25T04:43:15;99395.53;;;7.88;92.92
75538;BME280;64121;48.666;8.114;2023-04-25T04:45:41;99394.72;;;8.00;92.40
75538;BME280;64121;48.666;8.114;2023-04-25T04:48:07;99399.00;;;8.10;91.89
75538;BME280;64121;48.666;8.114;2023-04-25T04:50:32;99406.03;;;8.07;93.01
75538;BME280;64121;48.666;8.114;2023-04-25T04:52:57;99410.41;;;8.08;93.61
75538;BME280;64121;48.666;8.114;2023-04-25T04:55:23;99413.75;;;8.14;93.00
75538;BME280;64121;48.666;8.114;2023-04-25T04:57:48;99417.44;;;8.18;92.66
75538;BME280;64121;48.666;8.114;2023-04-25T05:00:14;99415.63;;;8.10;94.07
75538;BME280;64121;48.666;8.114;2023-04-25T05:02:41;99417.22;;;8.11;93.99
75538;BME280;64121;48.666;8.114;2023-04-25T05:05:07;99418.03;;;8.24;92.83
75538;BME280;64121;48.666;8.114;2023-04-25T05:07:33;99423.59;;;8.24;93.27
75538;BME280;64121;48.666;8.114;2023-04-25T05:09:58;99419.09;;;8.19;93.26
75538;BME280;64121;48.666;8.114;2023-04-25T05:12:23;99420.47;;;8.25;93.37
75538;BME280;64121;48.666;8.114;2023-04-25T05:14:49;99421.97;;;8.23;92.46
75538;BME280;64121;48.666;8.114;2023-04-25T05:17:14;99415.72;;;8.26;92.18
75538;BME280;64121;48.666;8.114;2023-04-25T05:19:40;99418.63;;;8.29;91.39
75538;BME280;64121;48.666;8.114;2023-04-25T05:22:06;99421.38;;;8.29;91.32
75538;BME280;64121;48.666;8.114;2023-04-25T05:24:31;99422.66;;;8.32;91.36
75538;BME280;64121;48.666;8.114;2023-04-25T05:26:57;99425.00;;;8.42;92.35
75538;BME280;64121;48.666;8.114;2023-04-25T05:29:22;99428.47;;;8.39;91.90
75538;BME280;64121;48.666;8.114;2023-04-25T05:31:47;99430.78;;;8.37;90.84
75538;BME280;64121;48.666;8.114;2023-04-25T05:34:13;99426.22;;;8.32;90.73
75538;BME280;64121;48.666;8.114;2023-04-25T05:36:39;99430.84;;;8.28;90.54
75538;BME280;64121;48.666;8.114;2023-04-25T05:39:05;99433.56;;;8.37;91.51
75538;BME280;64121;48.666;8.114;2023-04-25T05:41:30;99436.16;;;8.33;91.77
75538;BME280;64121;48.666;8.114;2023-04-25T05:43:55;99432.03;;;8.39;92.06
75538;BME280;64121;48.666;8.114;2023-04-25T05:46:21;99441.59;;;8.30;92.88
75538;BME280;64121;48.666;8.114;2023-04-25T05:48:46;99446.22;;;8.26;93.72
75538;BME280;64121;48.666;8.114;2023-04-25T05:51:11;99454.88;;;8.24;93.56
75538;BME280;64121;48.666;8.114;2023-04-25T05:53:38;99453.16;;;8.19;93.71
75538;BME280;64121;48.666;8.114;2023-04-25T05:56:04;99455.00;;;8.03;94.39
75538;BME280;64121;48.666;8.114;2023-04-25T05:58:29;99452.91;;;8.00;95.46
75538;BME280;64121;48.666;8.114;2023-04-25T06:00:55;99457.38;;;7.93;95.46
75538;BME280;64121;48.666;8.114;2023-04-25T06:03:20;99464.84;;;7.80;95.92
75538;BME280;64121;48.666;8.114;2023-04-25T06:05:45;99468.53;;;7.72;95.04
75538;BME280;64121;48.666;8.114;2023-04-25T06:08:11;99468.31;;;7.65;95.53
75538;BME280;64121;48.666;8.114;2023-04-25T06:10:37;99467.72;;;7.71;95.06
75538;BME280;64121;48.666;8.114;2023-04-25T06:13:04;99466.22;;;7.74;95.67
75538;BME280;64121;48.666;8.114;2023-04-25T06:15:29;99470.25;;;7.64;96.35
75538;BME280;64121;48.666;8.114;2023-04-25T06:17:55;99473.78;;;7.52;97.42
75538;BME280;64121;48.666;8.114;2023-04-25T06:20:20;99481.41;;;7.55;97.33
75538;BME280;64121;48.666;8.114;2023-04-25T06:22:46;99475.81;;;7.64;97.68
75538;BME280;64121;48.666;8.114;2023-04-25T06:25:11;99479.84;;;7.67;98.25
75538;BME280;64121;48.666;8.114;2023-04-25T06:27:38;99478.88;;;7.50;98.01
75538;BME280;64121;48.666;8.114;2023-04-25T06:30:04;99477.59;;;7.60;97.89
75538;BME280;64121;48.666;8.114;2023-04-25T06:32:29;99482.00;;;7.61;99.03
75538;BME280;64121;48.666;8.114;2023-04-25T06:34:54;99484.34;;;7.71;98.02
75538;BME280;64121;48.666;8.114;2023-04-25T06:37:20;99489.16;;;7.62;97.74
75538;BME280;64121;48.666;8.114;2023-04-25T06:39:45;99486.94;;;7.55;98.34
75538;BME280;64121;48.666;8.114;2023-04-25T06:42:10;99492.47;;;7.55;99.21
75538;BME280;64121;48.666;8.114;2023-04-25T06:44:37;99485.66;;;7.53;99.20
75538;BME280;64121;48.666;8.114;2023-04-25T06:47:02;99495.69;;;7.45;100.00
75538;BME280;64121;48.666;8.114;2023-04-25T06:49:28;99499.16;;;7.54;100.00
75538;BME280;64121;48.666;8.114;2023-04-25T06:51:53;99496.88;;;7.56;99.66
75538;BME280;64121;48.666;8.114;2023-04-25T06:54:18;99505.75;;;7.50;99.99
75538;BME280;64121;48.666;8.114;2023-04-25T06:56:44;99504.75;;;7.67;98.82
75538;BME280;64121;48.666;8.114;2023-04-25T06:59:09;99507.94;;;7.56;99.45
75538;BME280;64121;48.666;8.114;2023-04-25T07:01:36;99508.34;;;7.67;98.26
75538;BME280;64121;48.666;8.114;2023-04-25T07:04:01;99514.47;;;7.73;97.99
75538;BME280;64121;48.666;8.114;2023-04-25T07:06:26;99516.13;;;7.86;97.82
75538;BME280;64121;48.666;8.114;2023-04-25T07:08:52;99522.56;;;7.78;96.92
75538;BME280;64121;48.666;8.114;2023-04-25T07:11:17;99525.47;;;7.81;97.14
75538;BME280;64121;48.666;8.114;2023-04-25T07:13:42;99527.56;;;7.84;96.70
75538;BME280;64121;48.666;8.114;2023-04-25T07:16:07;99522.09;;;7.76;97.01
75538;BME280;64121;48.666;8.114;2023-04-25T07:18:34;99532.50;;;7.58;98.25
75538;BME280;64121;48.666;8.114;2023-04-25T07:20:59;99530.44;;;7.55;98.63
75538;BME280;64121;48.666;8.114;2023-04-25T07:23:25;99531.47;;;7.50;98.93
75538;BME280;64121;48.666;8.114;2023-04-25T07:25:50;99537.59;;;7.56;99.04
75538;BME280;64121;48.666;8.114;2023-04-25T07:28:15;99536.72;;;7.43;99.78
75538;BME280;64121;48.666;8.114;2023-04-25T07:30:41;99537.47;;;7.32;100.00
75538;BME280;64121;48.666;8.114;2023-04-25T07:33:06;99551.19;;;7.49;100.00
75538;BME280;64121;48.666;8.114;2023-04-25T07:35:33;99555.47;;;7.58;100.00
75538;BME280;64121;48.666;8.114;2023-04-25T07:37:58;99557.41;;;7.46;100.00
75538;BME280;64121;48.666;8.114;2023-04-25T07:40:24;99560.88;;;7.55;100.00
75538;BME280;64121;48.666;8.114;2023-04-25T07:42:49;99570.41;;;7.66;99.79
75538;BME280;64121;48.666;8.114;2023-04-25T07:45:14;99558.03;;;7.43;99.02
75538;BME280;64121;48.666;8.114;2023-04-25T07:47:40;99566.56;;;7.38;98.51
75538;BME280;64121;48.666;8.114;2023-04-25T07:50:06;99575.53;;;7.35;97.98
75538;BME280;64121;48.666;8.114;2023-04-25T07:52:33;99581.97;;;7.26;97.76
75538;BME280;64121;48.666;8.114;2023-04-25T07:54:58;99587.75;;;7.34;97.25
75538;BME280;64121;48.666;8.114;2023-04-25T07:57:23;99600.44;;;7.14;97.50
75538;BME280;64121;48.666;8.114;2023-04-25T07:59:49;99607.31;;;7.08;98.71
75538;BME280;64121;48.666;8.114;2023-04-25T08:02:14;99605.16;;;7.13;97.86
75538;BME280;64121;48.666;8.114;2023-04-25T08:04:39;99618.94;;;7.22;96.94
75538;BME280;64121;48.666;8.114;2023-04-25T08:07:05;99625.75;;;7.24;97.01
75538;BME280;64121;48.666;8.114;2023-04-25T08:09:31;99628.38;;;7.21;96.18
75538;BME280;64121;48.666;8.114;2023-04-25T08:11:56;99632.28;;;7.20;96.49
75538;BME280;64121;48.666;8.114;2023-04-25T08:14:22;99638.16;;;7.18;97.08
75538;BME280;64121;48.666;8.114;2023-04-25T08:16:47;99645.31;;;7.19;97.34
75538;BME280;64121;48.666;8.114;2023-04-25T08:19:12;99657.06;;;7.16;96.62
75538;BME280;64121;48.666;8.114;2023-04-25T08:21:38;99662.84;;;7.23;96.62
75538;BME280;64121;48.666;8.114;2023-04-25T08:24:03;99656.72;;;7.18;96.86
75538;BME280;64121;48.666;8.114;2023-04-25T08:26:30;99664.31;;;7.29;96.99
75538;BME280;64121;48.666;8.114;2023-04-25T08:28:55;99672.13;;;7.27;96.71
75538;BME280;64121;48.666;8.114;2023-04-25T08:31:21;99672.47;;;7.26;95.66
75538;BME280;64121;48.666;8.114;2023-04-25T08:33:46;99677.47;;;7.33;95.53
75538;BME280;64121;48.666;8.114;2023-04-25T08:36:11;99680.25;;;7.33;95.67
75538;BME280;64121;48.666;8.114;2023-04-25T08:38:37;99673.94;;;7.23;95.35
75538;BME280;64121;48.666;8.114;2023-04-25T08:41:02;99679.47;;;7.23;94.56
75538;BME280;64121;48.666;8.114;2023-04-25T08:43:29;99679.84;;;7.13;94.49
75538;BME280;64121;48.666;8.114;2023-04-25T08:45:58;99688.19;;;7.05;95.63
75538;BME280;64121;48.666;8.114;2023-04-25T08:48:24;99689.31;;;7.12;94.46
75538;BME280;64121;48.666;8.114;2023-04-25T08:50:53;99686.00;;;7.19;94.91
75538;BME280;64121;48.666;8.114;2023-04-25T08:53:22;99691.88;;;7.17;95.29
75538;BME280;64121;48.666;8.114;2023-04-25T08:55:50;99701.31;;;7.16;94.89
75538;BME280;64121;48.666;8.114;2023-04-25T08:58:18;99695.13;;;7.19;94.34
75538;BME280;64121;48.666;8.114;2023-04-25T09:00:45;99698.69;;;7.20;94.48
75538;BME280;64121;48.666;8.114;2023-04-25T09:03:11;99702.56;;;7.27;94.10
75538;BME280;64121;48.666;8.114;2023-04-25T09:05:36;99711.38;;;7.21;93.70
75538;BME280;64121;48.666;8.114;2023-04-25T09:08:02;99706.66;;;7.21;93.56
75538;BME280;64121;48.666;8.114;2023-04-25T09:10:27;99719.34;;;7.22;93.59
75538;BME280;64121;48.666;8.114;2023-04-25T09:13:03;99713.94;;;7.35;92.57
75538;BME280;64121;48.666;8.114;2023-04-25T09:15:28;99717.97;;;7.37;91.14
75538;BME280;64121;48.666;8.114;2023-04-25T09:17:56;99718.66;;;7.34;91.68
75538;BME280;64121;48.666;8.114;2023-04-25T09:20:22;99723.81;;;7.44;91.18
75538;BME280;64121;48.666;8.114;2023-04-25T09:22:47;99728.00;;;7.50;91.18
75538;BME280;64121;48.666;8.114;2023-04-25T09:25:13;99736.22;;;7.68;89.96
75538;BME280;64121;48.666;8.114;2023-04-25T09:27:49;99738.56;;;7.78;89.51
75538;BME280;64121;48.666;8.114;2023-04-25T09:30:15;99743.53;;;7.93;88.92
75538;BME280;64121;48.666;8.114;2023-04-25T09:32:42;99743.53;;;8.14;89.37
75538;BME280;64121;48.666;8.114;2023-04-25T09:35:09;99746.56;;;8.21;88.02
75538;BME280;64121;48.666;8.114;2023-04-25T09:37:34;99743.00;;;8.20;88.01
75538;BME280;64121;48.666;8.114;2023-04-25T09:40:00;99750.97;;;8.43;88.60
75538;BME280;64121;48.666;8.114;2023-04-25T09:42:29;99739.66;;;8.48;86.13
75538;BME280;64121;48.666;8.114;2023-04-25T09:44:55;99745.81;;;8.54;86.29
75538;BME280;64121;48.666;8.114;2023-04-25T09:47:22;99749.44;;;8.66;86.19
75538;BME280;64121;48.666;8.114;2023-04-25T09:49:49;99749.56;;;8.70;86.91
75538;BME280;64121;48.666;8.114;2023-04-25T09:52:17;99755.44;;;8.68;85.26
75538;BME280;64121;48.666;8.114;2023-04-25T09:54:42;99760.94;;;8.77;83.75
75538;BME280;64121;48.666;8.114;2023-04-25T09:57:11;99753.47;;;8.69;83.89
75538;BME280;64121;48.666;8.114;2023-04-25T09:59:38;99756.09;;;8.53;85.05
75538;BME280;64121;48.666;8.114;2023-04-25T10:02:05;99761.28;;;8.75;85.46
75538;BME280;64121;48.666;8.114;2023-04-25T10:04:34;99755.53;;;8.93;85.33
75538;BME280;64121;48.666;8.114;2023-04-25T10:07:00;99763.38;;;8.91;84.85
75538;BME280;64121;48.666;8.114;2023-04-25T10:09:29;99760.34;;;8.84;83.01
75538;BME280;64121;48.666;8.114;2023-04-25T10:11:56;99763.28;;;8.99;84.45
75538;BME280;64121;48.666;8.114;2023-04-25T10:14:23;99768.03;;;8.99;83.70
75538;BME280;64121;48.666;8.114;2023-04-25T10:16:49;99765.41;;;9.15;83.77
75538;BME280;64121;48.666;8.114;2023-04-25T10:19:15;99771.66;;;9.24;82.50
75538;BME280;64121;48.666;8.114;2023-04-25T10:21:46;99768.38;;;8.97;82.93
75538;BME280;64121;48.666;8.114;2023-04-25T10:24:14;99776.00;;;9.00;85.17
75538;BME280;64121;48.666;8.114;2023-04-25T10:26:41;99774.34;;;8.87;84.30
75538;BME280;64121;48.666;8.114;2023-04-25T10:29:07;99779.44;;;8.85;86.11
75538;BME280;64121;48.666;8.114;2023-04-25T10:31:45;99782.22;;;8.85;85.16
75538;BME280;64121;48.666;8.114;2023-04-25T10:34:10;99785.44;;;8.75;86.14
75538;BME280;64121;48.666;8.114;2023-04-25T10:36:35;99777.41;;;8.73;86.10
75538;BME280;64121;48.666;8.114;2023-04-25T10:39:04;99777.13;;;8.87;86.99
75538;BME280;64121;48.666;8.114;2023-04-25T10:41:29;99769.44;;;8.72;85.84
75538;BME280;64121;48.666;8.114;2023-04-25T10:44:00;99771.69;;;8.78;85.01
75538;BME280;64121;48.666;8.114;2023-04-25T10:46:26;99772.72;;;8.74;85.25
75538;BME280;64121;48.666;8.114;2023-04-25T10:48:53;99780.72;;;8.88;85.27
75538;BME280;64121;48.666;8.114;2023-04-25T10:51:21;99781.16;;;8.90;86.87
75538;BME280;64121;48.666;8.114;2023-04-25T10:53:47;99781.16;;;8.90;84.76
75538;BME280;64121;48.666;8.114;2023-04-25T10:56:22;99779.00;;;8.95;85.03
75538;BME280;64121;48.666;8.114;2023-04-25T10:58:49;99785.72;;;8.94;85.67
75538;BME280;64121;48.666;8.114;2023-04-25T11:01:20;99778.59;;;9.18;86.21
75538;BME280;64121;48.666;8.114;2023-04-25T11:03:45;99779.75;;;9.29;86.77
75538;BME280;64121;48.666;8.114;2023-04-25T11:06:22;99779.97;;;9.12;84.68
75538;BME280;64121;48.666;8.114;2023-04-25T11:08:49;99786.13;;;8.84;85.13
75538;BME280;64121;48.666;8.114;2023-04-25T11:11:14;99788.28;;;8.66;87.22
75538;BME280;64121;48.666;8.114;2023-04-25T11:13:40;99788.22;;;8.54;86.88
75538;BME280;64121;48.666;8.114;2023-04-25T11:16:07;99786.47;;;8.49;87.88
75538;BME280;64121;48.666;8.114;2023-04-25T11:18:33;99789.28;;;8.62;86.94
75538;BME280;64121;48.666;8.114;2023-04-25T11:20:59;99786.91;;;8.72;88.67
75538;BME280;64121;48.666;8.114;2023-04-25T11:23:24;99792.72;;;8.79;86.88
75538;BME280;64121;48.666;8.114;2023-04-25T11:25:50;99792.66;;;9.00;88.38
75538;BME280;64121;48.666;8.114;2023-04-25T11:28:20;99782.19;;;9.43;86.51
75538;BME280;64121;48.666;8.114;2023-04-25T11:30:48;99785.56;;;9.73;83.45
75538;BME280;64121;48.666;8.114;2023-04-25T11:33:13;99780.06;;;10.13;83.68
75538;BME280;64121;48.666;8.114;2023-04-25T11:35:41;99787.63;;;10.52;81.57
75538;BME280;64121;48.666;8.114;2023-04-25T11:38:06;99782.22;;;10.72;80.23
75538;BME280;64121;48.666;8.114;2023-04-25T11:40:32;99783.25;;;10.95;82.28
75538;BME280;64121;48.666;8.114;2023-04-25T11:43:00;99792.75;;;11.22;79.44
75538;BME280;64121;48.666;8.114;2023-04-25T11:45:26;99782.50;;;11.26;78.50
75538;BME280;64121;48.666;8.114;2023-04-25T11:47:52;99779.91;;;11.80;79.07
75538;BME280;64121;48.666;8.114;2023-04-25T11:50:17;99783.59;;;11.85;75.75
75538;BME280;64121;48.666;8.114;2023-04-25T11:52:45;99781.06;;;12.50;72.93
75538;BME280;64121;48.666;8.114;2023-04-25T11:55:13;99786.25;;;12.32;73.70
75538;BME280;64121;48.666;8.114;2023-04-25T11:57:40;99792.22;;;12.30;74.06
75538;BME280;64121;48.666;8.114;2023-04-25T12:00:11;99783.25;;;12.60;75.13
75538;BME280;64121;48.666;8.114;2023-04-25T12:02:37;99784.41;;;12.97;72.11
75538;BME280;64121;48.666;8.114;2023-04-25T12:05:02;99783.41;;;12.86;71.64
75538;BME280;64121;48.666;8.114;2023-04-25T12:07:30;99791.63;;;13.63;69.27
75538;BME280;64121;48.666;8.114;2023-04-25T12:09:57;99798.41;;;13.89;61.96
75538;BME280;64121;48.666;8.114;2023-04-25T12:12:27;99789.00;;;14.53;65.92
75538;BME280;64121;48.666;8.114;2023-04-25T12:14:52;99796.03;;;14.74;60.92
75538;BME280;64121;48.666;8.114;2023-04-25T12:17:17;99791.47;;;15.29;60.97
75538;BME280;64121;48.666;8.114;2023-04-25T12:19:43;99791.25;;;14.74;63.55
75538;BME280;64121;48.666;8.114;2023-04-25T12:22:19;99789.94;;;14.68;63.00
75538;BME280;64121;48.666;8.114;2023-04-25T12:24:45;99794.16;;;14.25;64.51
75538;BME280;64121;48.666;8.114;2023-04-25T12:27:14;99799.25;;;13.93;65.71
75538;BME280;64121;48.666;8.114;2023-04-25T12:29:39;99792.22;;;12.30;69.16
75538;BME280;64121;48.666;8.114;2023-04-25T12:32:15;99799.13;;;12.01;73.67
75538;BME280;64121;48.666;8.114;2023-04-25T12:34:40;99797.50;;;11.69;73.20
75538;BME280;64121;48.666;8.114;2023-04-25T12:37:05;99800.91;;;10.99;77.40
75538;BME280;64121;48.666;8.114;2023-04-25T12:39:31;99797.91;;;10.64;76.86
75538;BME280;64121;48.666;8.114;2023-04-25T12:41:56;99806.09;;;10.45;76.09
75538;BME280;64121;48.666;8.114;2023-04-25T12:44:23;99817.16;;;10.29;78.57
75538;BME280;64121;48.666;8.114;2023-04-25T12:46:48;99830.34;;;9.59;82.63
75538;BME280;64121;48.666;8.114;2023-04-25T12:49:14;99834.00;;;8.81;86.36
75538;BME280;64121;48.666;8.114;2023-04-25T12:51:39;99838.63;;;8.27;89.86
75538;BME280;64121;48.666;8.114;2023-04-25T12:54:05;99841.63;;;7.92;91.26
75538;BME280;64121;48.666;8.114;2023-04-25T12:56:31;99843.69;;;7.74;93.47
75538;BME280;64121;48.666;8.114;2023-04-25T12:58:56;99859.34;;;7.70;94.82
75538;BME280;64121;48.666;8.114;2023-04-25T13:01:24;99864.75;;;7.96;94.99
75538;BME280;64121;48.666;8.114;2023-04-25T13:03:49;99869.31;;;8.01;94.48